Latest Weather Observations for Trangie

IDN60801

Issued at 9:35 pm EDT Thursday 27 November 2014 (issued every 30 minutes, with the page automatically refreshed every 10 minutes)

About weather observations | Map of weather stations | Latest weather observations for NSW | Other Formats
Station Details ID: 051049 Name: TRANGIE RESEARCH STATION AWS Lat: -31.99 Lon: 147.95 Height: 215.0 m
Data from the previous 72 hours. | See also: Recent months at Trangie
Date/Time
EDT
Temp
°C
App
Temp
°C
Dew
Point
Rel
Hum
%
Delta-T
°C
Wind Press
QNH
hPa
Press
MSL
hPa
Rain
since 9 am
mm
Dir
 
Spd
km/h
Gust
km/h
Spd
kts
Gust
kts
27/09:30pm 25.1 21.9 12.0 44 7.5 E 20 39 11 21 1016.8 1016.0 0.0
27/09:00pm 26.2 22.9 11.5 40 8.4 E 20 32 11 17 1016.4 1015.6 0.0
27/08:30pm 26.4 23.4 4.2 24 11.3 SE 9 17 5 9 1015.8 1015.0 0.0
27/08:00pm 27.9 24.8 1.4 18 12.9 S 7 13 4 7 1015.3 1014.5 0.0
27/07:30pm 30.4 26.6 1.8 16 14.3 S 11 15 6 8 1015.2 1014.4 0.0
27/07:00pm 31.2 27.4 1.5 15 14.8 SSE 11 19 6 10 1015.0 1014.2 0.0
27/06:30pm 32.1 28.9 3.1 16 14.9 SSE 9 20 5 11 1014.9 1014.1 0.0
27/06:00pm 31.7 27.3 2.8 16 14.8 S 15 24 8 13 1014.7 1013.9 0.0
27/05:30pm 31.8 27.8 2.9 16 14.8 SSE 13 22 7 12 1014.8 1014.0 0.0
27/05:00pm 31.6 27.0 3.6 17 14.5 S 17 28 9 15 1014.9 1014.1 0.0
27/04:30pm 31.7 26.9 2.8 16 14.8 SSE 17 26 9 14 1015.1 1014.3 0.0
27/04:00pm 32.2 27.1 3.2 16 15.0 S 19 33 10 18 1015.2 1014.4 0.0
27/03:30pm 31.7 26.7 3.7 17 14.5 SW 19 30 10 16 1015.6 1014.8 0.0
27/03:00pm 31.9 27.6 5.4 19 14.1 SSW 17 26 9 14 1016.0 1015.2 0.0
27/02:30pm 31.2 28.3 6.3 21 13.5 SE 11 19 6 10 1016.2 1015.4 0.0
27/02:00pm 31.3 27.5 5.7 20 13.7 SSE 15 26 8 14 1016.7 1015.9 0.0
27/01:30pm 30.1 27.9 7.9 25 12.2 ESE 9 17 5 9 1017.0 1016.2 0.0
27/01:00pm 29.7 25.9 7.6 25 12.1 S 17 26 9 14 1017.4 1016.7 0.0
27/12:30pm 29.5 26.4 7.4 25 12.1 S 13 20 7 11 1017.9 1017.2 0.0
27/12:00pm 29.1 25.8 6.5 24 12.1 SE 13 26 7 14 1018.2 1017.4 0.0
27/11:30am 27.8 24.8 7.6 28 11.0 SSE 13 22 7 12 1018.4 1017.6 0.0
27/11:00am 28.2 25.8 9.9 32 10.3 SSE 13 22 7 12 1018.5 1017.7 0.0
27/10:30am 26.6 25.4 11.5 39 8.7 SSE 9 20 5 11 1018.8 1018.0 0.0
27/10:00am 25.5 23.8 12.4 44 7.6 ESE 13 20 7 11 1018.9 1018.1 0.0
27/09:30am 24.4 22.5 11.7 45 7.3 ESE 13 20 7 11 1018.9 1018.1 0.0
27/09:00am 23.3 20.7 10.7 45 7.0 SE 15 24 8 13 1019.1 1018.3 0.0
27/08:30am 22.5 19.7 7.1 37 8.0 SE 11 17 6 9 1019.0 1018.2 0.0
27/08:00am 20.6 17.3 4.6 35 7.8 SSE 11 15 6 8 1018.9 1018.1 0.0
27/07:30am 18.9 15.6 4.7 39 6.9 S 11 17 6 9 1018.5 1017.7 0.0
27/07:00am 17.3 14.0 4.6 43 6.1 SSE 11 19 6 10 1018.3 1017.5 0.0
27/06:30am 14.8 11.6 5.3 53 4.5 SSE 11 15 6 8 1017.8 1017.1 0.0
27/06:00am 14.9 11.9 4.3 49 5.0 SSE 9 13 5 7 1017.5 1016.8 0.0
27/05:30am 15.0 12.4 4.1 48 5.1 S 7 13 4 7 1017.2 1016.4 0.0
27/05:00am 15.2 12.2 4.0 47 5.2 S 9 13 5 7 1017.0 1016.2 0.0
27/04:30am 15.5 12.8 3.9 46 5.4 S 7 13 4 7 1016.9 1016.1 0.0
27/04:00am 15.5 12.8 3.9 46 5.4 S 7 11 4 6 1016.7 1015.9 0.0
27/03:30am 16.5 13.4 3.6 42 6.0 S 9 15 5 8 1016.5 1015.7 0.0
27/03:00am 16.5 13.4 3.6 42 6.0 S 9 13 5 7 1016.4 1015.6 0.0
27/02:30am 16.4 13.3 3.5 42 6.0 S 9 11 5 6 1016.6 1015.8 0.0
27/02:00am 16.8 13.6 3.1 40 6.3 S 9 13 5 7 1016.7 1015.9 0.0
27/01:30am 17.9 14.2 2.6 36 7.1 S 11 15 6 8 1016.9 1016.1 0.0
27/01:00am 18.5 15.3 2.8 35 7.3 S 9 13 5 7 1017.1 1016.3 0.0
27/12:30am 18.4 14.8 2.7 35 7.3 S 11 15 6 8 1017.5 1016.8 0.0
27/12:00am 18.7 15.1 2.9 35 7.4 SSW 11 13 6 7 1017.7 1017.0 0.0
 
Date/Time
EDT
Temp
°C
App
Temp
°C
Dew
Point
Rel
Hum
%
Delta-T
°C
Wind Press
QNH
hPa
Press
MSL
hPa
Rain
since 9 am
mm
Dir
 
Spd
km/h
Gust
km/h
Spd
kts
Gust
kts
26/11:30pm 19.5 15.8 2.4 32 8.0 SSW 11 13 6 7 1017.7 1017.0 0.0
26/11:00pm 19.8 16.1 2.2 31 8.2 S 11 15 6 8 1017.6 1016.9 0.0
26/10:30pm 20.6 16.8 2.0 29 8.7 S 11 13 6 7 1017.6 1016.9 0.0
26/10:00pm 20.9 17.5 1.7 28 8.9 S 9 9 5 5 1017.3 1016.5 0.0
26/09:30pm 21.6 18.4 0.8 25 9.6 S 7 11 4 6 1017.1 1016.3 0.0
26/09:00pm 22.5 18.9 0.4 23 10.1 S 9 13 5 7 1016.7 1015.9 0.0
26/08:30pm 23.4 19.2 -0.8 20 10.9 SSW 11 15 6 8 1016.4 1015.6 0.0
26/08:00pm 25.3 20.9 -2.3 16 12.3 S 11 13 6 7 1016.0 1015.2 0.0
26/07:30pm 27.7 21.6 -4.3 12 14.1 SSW 19 24 10 13 1015.8 1015.0 0.0
26/07:00pm 28.5 22.6 -2.6 13 14.2 S 19 30 10 16 1015.6 1014.8 0.0
26/06:30pm 29.4 23.8 -2.9 12 14.7 S 17 22 9 12 1015.2 1014.4 0.0
26/06:00pm 29.7 23.0 -3.9 11 15.1 SW 22 30 12 16 1014.9 1014.1 0.0
26/05:30pm 29.8 23.1 -3.8 11 15.1 SSW 22 32 12 17 1014.9 1014.1 0.0
26/05:00pm 30.3 24.5 -4.7 10 15.6 S 17 24 9 13 1014.9 1014.1 0.0
26/04:30pm 30.7 24.0 -4.4 10 15.8 SSW 22 32 12 17 1015.1 1014.3 0.0
26/04:00pm 30.4 23.8 -3.3 11 15.4 SW 22 33 12 18 1015.4 1014.6 0.0
26/03:30pm 29.8 22.2 -5.1 10 15.4 SSW 26 33 14 18 1015.6 1014.8 0.0
26/03:00pm 29.1 23.0 -4.3 11 14.8 S 19 32 10 17 1015.9 1015.1 0.0
26/02:30pm 30.3 25.2 -2.2 12 15.1 SW 15 24 8 13 1016.2 1015.4 0.0
26/02:00pm 28.9 22.4 -2.3 13 14.3 WSW 22 32 12 17 1016.5 1015.7 0.0
26/01:30pm 28.2 22.7 -1.8 14 13.8 SSW 17 32 9 17 1017.0 1016.2 0.0
26/01:00pm 27.5 22.6 1.8 19 12.6 S 17 26 9 14 1017.4 1016.7 0.0
26/12:30pm 26.3 21.3 3.5 23 11.4 SSW 19 39 10 21 1017.7 1017.0 0.0
26/12:00pm 27.1 23.6 5.4 25 11.3 SW 13 22 7 12 1018.0 1017.3 0.0
26/11:30am 26.2 22.6 5.2 26 10.8 S 13 22 7 12 1018.2 1017.4 0.0
26/11:00am 26.2 22.6 6.8 29 10.3 S 15 24 8 13 1018.4 1017.6 0.0
26/10:30am 24.7 21.2 7.4 33 9.2 S 15 24 8 13 1018.6 1017.8 0.0
26/10:00am 23.5 21.1 10.2 43 7.4 SSE 13 22 7 12 1018.7 1017.9 0.0
26/09:30am 22.3 20.6 11.1 49 6.3 SSE 11 17 6 9 1019.0 1018.2 0.0
26/09:00am 21.5 19.2 10.6 50 6.0 SE 13 20 7 11 1019.1 1018.3 0.0
26/08:30am 20.4 17.8 9.3 49 6.0 SSE 13 20 7 11 1018.9 1018.1 0.0
26/08:00am 18.6 15.2 6.1 44 6.2 S 13 17 7 9 1018.8 1018.0 0.0
26/07:30am 16.9 14.2 5.5 47 5.6 SSE 9 15 5 8 1018.6 1017.8 0.0
26/07:00am 14.7 12.0 5.5 54 4.4 SSE 9 13 5 7 1018.5 1017.7 0.0
26/06:30am 12.8 10.0 5.0 59 3.6 SSE 9 13 5 7 1018.3 1017.5 0.0
26/06:00am 11.7 9.2 4.7 62 3.2 SSE 7 11 4 6 1018.2 1017.4 0.0
26/05:30am 11.7 9.2 4.7 62 3.2 SSE 7 11 4 6 1017.8 1017.1 0.0
26/05:00am 12.0 9.1 4.5 60 3.4 SSE 9 13 5 7 1017.7 1017.0 0.0
26/04:30am 13.0 10.0 4.2 55 4.0 SSE 9 17 5 9 1017.4 1016.7 0.0
26/04:00am 13.4 10.5 4.6 55 4.1 SSE 9 13 5 7 1017.2 1016.4 0.0
26/03:30am 14.3 11.0 4.3 51 4.7 S 11 17 6 9 1017.2 1016.4 0.0
26/03:00am 14.4 11.0 4.1 50 4.8 S 11 19 6 10 1017.2 1016.4 0.0
26/02:30am 14.4 10.6 3.8 49 4.9 S 13 17 7 9 1017.3 1016.5 0.0
26/02:00am 15.2 11.3 3.4 45 5.4 S 13 17 7 9 1017.6 1016.9 0.0
26/01:30am 15.4 11.8 3.2 44 5.6 S 11 15 6 8 1017.9 1017.2 0.0
26/01:00am 16.3 12.2 2.3 39 6.3 S 13 17 7 9 1018.2 1017.4 0.0
26/12:30am 17.0 13.3 2.2 37 6.7 S 11 15 6 8 1018.5 1017.7 0.0
26/12:00am 17.3 13.7 2.9 38 6.7 S 11 15 6 8 1018.4 1017.6 0.0
 
Date/Time
EDT
Temp
°C
App
Temp
°C
Dew
Point
Rel
Hum
%
Delta-T
°C
Wind Press
QNH
hPa
Press
MSL
hPa
Rain
since 9 am
mm
Dir
 
Spd
km/h
Gust
km/h
Spd
kts
Gust
kts
25/11:30pm 17.9 14.8 3.4 38 6.8 S 9 13 5 7 1018.6 1017.8 0.0
25/11:00pm 15.8 13.6 7.8 59 4.0 SSW 9 13 5 7 1018.7 1017.9 0.0
25/10:30pm 15.6 13.5 8.4 62 3.7 SW 9 11 5 6 1018.7 1017.9 0.0
25/10:00pm 16.9 15.8 4.9 45 5.8 CALM 0 0 0 0 1018.3 1017.5 0.0
25/09:30pm 17.8 16.8 5.4 44 6.1 CALM 0 0 0 0 1018.0 1017.3 0.0
25/09:00pm 20.1 18.0 3.8 34 7.8 SSE 4 7 2 4 1017.9 1017.2 0.0
25/08:30pm 21.1 18.2 1.4 27 9.1 S 6 9 3 5 1017.6 1016.9 0.0
25/08:00pm 23.0 19.4 0.8 23 10.3 S 9 11 5 6 1017.4 1016.7 0.0
25/07:30pm 24.8 20.3 -0.4 19 11.6 S 13 22 7 12 1017.0 1016.2 0.0
25/07:00pm 25.5 20.6 -0.5 18 12.0 S 15 20 8 11 1016.9 1016.1 0.0
25/06:30pm 25.6 20.3 -0.5 18 12.1 SSW 17 22 9 12 1016.6 1015.8 0.0
25/06:00pm 26.2 21.7 0.0 18 12.3 S 13 24 7 13 1016.6 1015.8 0.0
25/05:30pm 26.0 21.2 -0.1 18 12.2 S 15 24 8 13 1016.7 1015.9 0.0
25/05:00pm 26.7 22.3 0.4 18 12.5 SSW 13 24 7 13 1016.9 1016.1 0.0
25/04:30pm 25.4 20.8 -1.4 17 12.2 S 13 22 7 12 1017.1 1016.3 0.0
25/04:00pm 25.2 20.6 -0.8 18 11.9 SSW 13 30 7 16 1017.3 1016.5 0.0
25/03:30pm 25.6 20.2 -1.2 17 12.2 S 17 28 9 15 1017.6 1016.9 0.0
25/03:00pm 26.4 21.2 0.2 18 12.3 S 17 22 9 12 1017.7 1017.0 0.0
25/02:30pm 24.2 19.3 -0.2 20 11.2 S 15 32 8 17 1018.0 1017.3 0.0
25/02:00pm 24.1 19.7 2.9 25 10.3 S 15 26 8 14 1018.3 1017.5 0.0
25/01:30pm 22.8 17.7 2.8 27 9.6 SSE 19 32 10 17 1018.6 1017.8 0.0
25/01:00pm 22.5 19.0 5.4 33 8.6 SSE 13 22 7 12 1018.9 1018.1 0.0
25/12:30pm 20.9 17.1 5.7 37 7.6 S 15 24 8 13 1019.3 1018.5 0.0
25/12:00pm 20.1 15.9 5.7 39 7.2 S 17 24 9 13 1019.3 1018.5 0.0
25/11:30am 19.2 14.6 6.7 44 6.3 S 20 30 11 16 1019.3 1018.5 0.0
25/11:00am 19.1 14.7 6.6 44 6.3 S 19 32 10 17 1019.4 1018.6 0.0
25/10:30am 18.9 14.6 7.0 46 6.1 S 19 30 10 16 1019.1 1018.3 0.0
25/10:00am 18.5 14.8 9.3 55 4.9 S 19 26 10 14 1019.0 1018.2 0.0
25/09:30am 18.1 13.6 10.0 59 4.3 S 24 32 13 17 1018.6 1017.8 0.0
25/09:00am 18.1 15.1 13.8 76 2.5 S 22 33 12 18 1018.2 1017.4 5.2
25/08:30am 17.9 15.5 13.8 77 2.4 S 19 30 10 16 1017.8 1017.1 5.2
25/08:00am 17.6 14.1 13.5 77 2.3 SSW 24 32 13 17 1017.1 1016.3 5.2
25/07:30am 17.9 15.1 14.2 79 2.1 SSW 22 32 12 17 1016.7 1015.9 5.2
25/07:00am 19.0 17.0 16.4 85 1.6 SSW 22 33 12 18 1015.9 1015.1 5.2
25/06:30am 19.3 17.0 16.7 85 1.6 SSW 24 35 13 19 1015.2 1014.4 5.2
25/06:00am 19.7 19.3 18.0 90 1.1 S 17 26 9 14 1014.4 1013.6 5.2
25/05:30am 19.9 19.8 17.9 88 1.2 S 15 22 8 12 1013.9 1013.1 5.2
25/05:00am 19.8 20.6 19.0 95 0.5 SSW 13 20 7 11 1013.6 1012.8 5.2
25/04:30am 19.6 21.5 18.9 96 0.4 SSW 7 9 4 5 1013.7 1012.9 5.2
25/04:00am 19.2 21.3 18.9 98 0.2 SSE 6 7 3 4 1013.1 1012.3 5.2
25/03:30am 19.1 21.0 18.6 97 0.3 ESE 6 9 3 5 1013.0 1012.2 5.2
25/03:00am 19.4 20.6 19.1 98 0.2 ENE 11 15 6 8 1012.8 1012.0 5.0
25/02:30am 19.5 21.6 19.3 99 0.1 E 7 13 4 7 1012.9 1012.1 4.8
25/02:00am 19.3 19.7 19.0 98 0.2 S 15 22 8 12 1013.8 1013.0 4.4
25/01:31am 20.5 18.6 19.3 93 0.8 SW 28 48 15 26 1014.4 1013.6 3.4
25/01:30am 20.9 19.6 19.9 94 0.6 SW 26 46 14 25 1014.4 1013.6 3.2
25/01:00am 20.8 23.5 19.5 92 0.8 NNE 4 9 2 5 1013.3 1012.4 2.8
25/12:30am 20.9 23.9 19.2 90 1.1 S 2 7 1 4 1013.8 1013.0 1.8
25/12:00am 21.0 23.0 19.1 89 1.2 SE 7 11 4 6 1013.7 1012.9 1.4
 
Date/Time
EDT
Temp
°C
App
Temp
°C
Dew
Point
Rel
Hum
%
Delta-T
°C
Wind Press
QNH
hPa
Press
MSL
hPa
Rain
since 9 am
mm
Dir
 
Spd
km/h
Gust
km/h
Spd
kts
Gust
kts
24/11:30pm 23.4 23.2 19.8 80 2.3 WSW 20 30 11 16 1013.8 1013.0 0.4
24/11:00pm 24.2 24.7 18.4 70 3.7 N 13 19 7 10 1012.5 1011.7 0.2
24/10:30pm 27.4 27.1 16.4 51 6.9 N 13 20 7 11 1012.2 1011.4 0.0
24/10:00pm 29.6 28.5 14.2 39 9.4 NW 13 19 7 10 1012.1 1011.3 0.0

Other Formats:

Comma delimited format used in spreadsheet applications
http://www.bom.gov.au/fwo/IDN60801/IDN60801.95710.axf

JavaScript Object Notation format (JSON) in row-major order
http://www.bom.gov.au/fwo/IDN60801/IDN60801.95710.json